sensor_id;sensor_type;location;lat;lon;timestamp;P1;durP1;ratioP1;P2;durP2;ratioP2
5710;SDS011;61291;52.524;13.422;2022-11-15T00:01:08;234.20;;;114.67;;
5710;SDS011;61291;52.524;13.422;2022-11-15T00:03:34;209.80;;;112.77;;
5710;SDS011;61291;52.524;13.422;2022-11-15T00:06:03;204.70;;;114.60;;
5710;SDS011;61291;52.524;13.422;2022-11-15T00:08:30;226.80;;;113.33;;
5710;SDS011;61291;52.524;13.422;2022-11-15T00:10:56;213.13;;;111.53;;
5710;SDS011;61291;52.524;13.422;2022-11-15T00:13:24;212.60;;;116.67;;
5710;SDS011;61291;52.524;13.422;2022-11-15T00:15:50;216.40;;;115.33;;
5710;SDS011;61291;52.524;13.422;2022-11-15T00:18:16;232.50;;;118.63;;
5710;SDS011;61291;52.524;13.422;2022-11-15T00:20:41;230.87;;;117.27;;
5710;SDS011;61291;52.524;13.422;2022-11-15T00:23:07;226.83;;;116.50;;
5710;SDS011;61291;52.524;13.422;2022-11-15T00:25:33;206.77;;;110.97;;
5710;SDS011;61291;52.524;13.422;2022-11-15T00:27:59;221.07;;;116.17;;
5710;SDS011;61291;52.524;13.422;2022-11-15T00:30:25;216.93;;;113.60;;
5710;SDS011;61291;52.524;13.422;2022-11-15T00:32:51;230.40;;;112.33;;
5710;SDS011;61291;52.524;13.422;2022-11-15T00:35:17;226.07;;;118.33;;
5710;SDS011;61291;52.524;13.422;2022-11-15T00:37:43;212.07;;;116.00;;
5710;SDS011;61291;52.524;13.422;2022-11-15T00:40:09;207.73;;;113.10;;
5710;SDS011;61291;52.524;13.422;2022-11-15T00:42:35;224.17;;;116.73;;
5710;SDS011;61291;52.524;13.422;2022-11-15T00:45:01;213.30;;;112.77;;
5710;SDS011;61291;52.524;13.422;2022-11-15T00:47:26;208.60;;;113.53;;
5710;SDS011;61291;52.524;13.422;2022-11-15T00:49:51;207.73;;;116.23;;
5710;SDS011;61291;52.524;13.422;2022-11-15T00:52:17;225.33;;;113.83;;
5710;SDS011;61291;52.524;13.422;2022-11-15T00:54:42;223.83;;;114.87;;
5710;SDS011;61291;52.524;13.422;2022-11-15T00:57:08;221.10;;;112.37;;
5710;SDS011;61291;52.524;13.422;2022-11-15T00:59:33;219.73;;;114.67;;
5710;SDS011;61291;52.524;13.422;2022-11-15T01:01:59;260.33;;;121.53;;
5710;SDS011;61291;52.524;13.422;2022-11-15T01:04:24;254.00;;;126.00;;
5710;SDS011;61291;52.524;13.422;2022-11-15T01:06:50;259.47;;;121.53;;
5710;SDS011;61291;52.524;13.422;2022-11-15T01:09:16;225.03;;;116.77;;
5710;SDS011;61291;52.524;13.422;2022-11-15T01:11:41;235.30;;;116.83;;
5710;SDS011;61291;52.524;13.422;2022-11-15T01:14:07;232.70;;;117.17;;
5710;SDS011;61291;52.524;13.422;2022-11-15T01:16:32;235.03;;;118.50;;
5710;SDS011;61291;52.524;13.422;2022-11-15T01:18:58;238.77;;;119.17;;
5710;SDS011;61291;52.524;13.422;2022-11-15T01:21:23;237.03;;;117.80;;
5710;SDS011;61291;52.524;13.422;2022-11-15T01:23:52;232.50;;;115.27;;
5710;SDS011;61291;52.524;13.422;2022-11-15T01:26:21;241.33;;;118.50;;
5710;SDS011;61291;52.524;13.422;2022-11-15T01:28:47;250.43;;;117.20;;
5710;SDS011;61291;52.524;13.422;2022-11-15T01:31:15;240.50;;;118.17;;
5710;SDS011;61291;52.524;13.422;2022-11-15T01:33:42;240.93;;;118.73;;
5710;SDS011;61291;52.524;13.422;2022-11-15T01:36:10;229.23;;;115.20;;
5710;SDS011;61291;52.524;13.422;2022-11-15T01:38:37;275.13;;;123.90;;
5710;SDS011;61291;52.524;13.422;2022-11-15T01:41:03;278.83;;;122.77;;
5710;SDS011;61291;52.524;13.422;2022-11-15T01:43:36;249.00;;;119.47;;
5710;SDS011;61291;52.524;13.422;2022-11-15T01:46:03;264.10;;;121.57;;
5710;SDS011;61291;52.524;13.422;2022-11-15T01:48:32;258.87;;;119.23;;
5710;SDS011;61291;52.524;13.422;2022-11-15T01:51:00;265.20;;;118.10;;
5710;SDS011;61291;52.524;13.422;2022-11-15T01:53:28;244.10;;;118.93;;
5710;SDS011;61291;52.524;13.422;2022-11-15T01:55:56;253.03;;;118.57;;
5710;SDS011;61291;52.524;13.422;2022-11-15T01:58:23;257.47;;;120.33;;
5710;SDS011;61291;52.524;13.422;2022-11-15T02:00:48;252.13;;;120.90;;
5710;SDS011;61291;52.524;13.422;2022-11-15T02:03:14;257.27;;;118.47;;
5710;SDS011;61291;52.524;13.422;2022-11-15T02:05:43;260.87;;;118.63;;
5710;SDS011;61291;52.524;13.422;2022-11-15T02:08:09;271.77;;;140.37;;
5710;SDS011;61291;52.524;13.422;2022-11-15T02:10:44;292.37;;;137.57;;
5710;SDS011;61291;52.524;13.422;2022-11-15T02:13:16;268.87;;;137.87;;
5710;SDS011;61291;52.524;13.422;2022-11-15T02:15:52;256.83;;;117.43;;
5710;SDS011;61291;52.524;13.422;2022-11-15T02:18:35;240.53;;;115.80;;
5710;SDS011;61291;52.524;13.422;2022-11-15T02:21:11;261.63;;;118.97;;
5710;SDS011;61291;52.524;13.422;2022-11-15T02:23:55;273.73;;;116.83;;
5710;SDS011;61291;52.524;13.422;2022-11-15T02:32:24;236.57;;;113.03;;
5710;SDS011;61291;52.524;13.422;2022-11-15T02:35:02;275.87;;;121.67;;
5710;SDS011;61291;52.524;13.422;2022-11-15T02:37:42;257.57;;;118.57;;
5710;SDS011;61291;52.524;13.422;2022-11-15T02:40:18;260.20;;;121.67;;
5710;SDS011;61291;52.524;13.422;2022-11-15T02:43:12;278.67;;;120.07;;
5710;SDS011;61291;52.524;13.422;2022-11-15T02:46:03;262.90;;;115.00;;
5710;SDS011;61291;52.524;13.422;2022-11-15T02:48:36;268.40;;;114.90;;
5710;SDS011;61291;52.524;13.422;2022-11-15T02:51:02;265.37;;;121.57;;
5710;SDS011;61291;52.524;13.422;2022-11-15T02:53:28;264.33;;;120.23;;
5710;SDS011;61291;52.524;13.422;2022-11-15T02:55:55;280.37;;;124.63;;
5710;SDS011;61291;52.524;13.422;2022-11-15T03:01:18;315.43;;;126.37;;
5710;SDS011;61291;52.524;13.422;2022-11-15T03:04:43;261.77;;;118.87;;
5710;SDS011;61291;52.524;13.422;2022-11-15T03:06:55;275.37;;;123.13;;
5710;SDS011;61291;52.524;13.422;2022-11-15T03:12:14;289.77;;;127.00;;
5710;SDS011;61291;52.524;13.422;2022-11-15T03:17:30;278.90;;;120.70;;
5710;SDS011;61291;52.524;13.422;2022-11-15T03:20:04;252.20;;;113.70;;
5710;SDS011;61291;52.524;13.422;2022-11-15T03:22:36;283.67;;;118.07;;
5710;SDS011;61291;52.524;13.422;2022-11-15T03:25:06;289.87;;;118.33;;
5710;SDS011;61291;52.524;13.422;2022-11-15T03:27:35;274.03;;;118.30;;
5710;SDS011;61291;52.524;13.422;2022-11-15T03:30:06;271.50;;;121.70;;
5710;SDS011;61291;52.524;13.422;2022-11-15T03:32:34;257.70;;;117.77;;
5710;SDS011;61291;52.524;13.422;2022-11-15T03:40:52;285.83;;;120.60;;
5710;SDS011;61291;52.524;13.422;2022-11-15T03:46:13;264.10;;;119.27;;
5710;SDS011;61291;52.524;13.422;2022-11-15T03:48:47;283.13;;;124.43;;
5710;SDS011;61291;52.524;13.422;2022-11-15T03:51:16;290.07;;;126.50;;
5710;SDS011;61291;52.524;13.422;2022-11-15T03:53:42;283.50;;;120.57;;
5710;SDS011;61291;52.524;13.422;2022-11-15T03:56:08;297.80;;;121.80;;
5710;SDS011;61291;52.524;13.422;2022-11-15T03:58:33;282.13;;;117.50;;
5710;SDS011;61291;52.524;13.422;2022-11-15T04:00:59;269.97;;;115.57;;
5710;SDS011;61291;52.524;13.422;2022-11-15T04:03:25;282.40;;;126.07;;
5710;SDS011;61291;52.524;13.422;2022-11-15T04:05:50;280.47;;;119.57;;
5710;SDS011;61291;52.524;13.422;2022-11-15T04:08:16;289.63;;;125.87;;
5710;SDS011;61291;52.524;13.422;2022-11-15T04:10:41;321.67;;;130.40;;
5710;SDS011;61291;52.524;13.422;2022-11-15T04:13:07;288.03;;;131.67;;
5710;SDS011;61291;52.524;13.422;2022-11-15T04:15:32;287.60;;;130.27;;
5710;SDS011;61291;52.524;13.422;2022-11-15T04:17:58;263.33;;;120.43;;
5710;SDS011;61291;52.524;13.422;2022-11-15T04:20:24;285.70;;;123.63;;
5710;SDS011;61291;52.524;13.422;2022-11-15T04:23:11;288.13;;;121.90;;
5710;SDS011;61291;52.524;13.422;2022-11-15T04:25:59;269.27;;;121.73;;
5710;SDS011;61291;52.524;13.422;2022-11-15T04:28:26;295.53;;;125.23;;
5710;SDS011;61291;52.524;13.422;2022-11-15T04:30:52;294.80;;;124.10;;
5710;SDS011;61291;52.524;13.422;2022-11-15T04:33:17;301.93;;;123.67;;
5710;SDS011;61291;52.524;13.422;2022-11-15T04:35:44;259.20;;;121.37;;
5710;SDS011;61291;52.524;13.422;2022-11-15T04:38:29;274.37;;;125.73;;
5710;SDS011;61291;52.524;13.422;2022-11-15T04:40:54;274.77;;;123.40;;
5710;SDS011;61291;52.524;13.422;2022-11-15T04:43:20;267.57;;;123.50;;
5710;SDS011;61291;52.524;13.422;2022-11-15T04:45:45;300.57;;;123.07;;
5710;SDS011;61291;52.524;13.422;2022-11-15T04:48:11;273.20;;;123.40;;
5710;SDS011;61291;52.524;13.422;2022-11-15T04:50:36;300.05;;;132.88;;
5710;SDS011;61291;52.524;13.422;2022-11-15T04:53:02;283.20;;;129.50;;
5710;SDS011;61291;52.524;13.422;2022-11-15T04:55:27;287.87;;;123.73;;
5710;SDS011;61291;52.524;13.422;2022-11-15T04:58:00;270.00;;;120.23;;
5710;SDS011;61291;52.524;13.422;2022-11-15T05:00:26;268.33;;;124.10;;
5710;SDS011;61291;52.524;13.422;2022-11-15T05:02:55;308.60;;;123.20;;
5710;SDS011;61291;52.524;13.422;2022-11-15T05:05:40;293.57;;;127.87;;
5710;SDS011;61291;52.524;13.422;2022-11-15T05:08:05;290.80;;;129.43;;
5710;SDS011;61291;52.524;13.422;2022-11-15T05:10:31;290.33;;;124.37;;
5710;SDS011;61291;52.524;13.422;2022-11-15T05:12:56;279.23;;;124.97;;
5710;SDS011;61291;52.524;13.422;2022-11-15T05:15:22;283.43;;;123.07;;
5710;SDS011;61291;52.524;13.422;2022-11-15T05:17:47;262.60;;;121.37;;
5710;SDS011;61291;52.524;13.422;2022-11-15T05:20:13;266.37;;;125.37;;
5710;SDS011;61291;52.524;13.422;2022-11-15T05:22:38;279.80;;;123.47;;
5710;SDS011;61291;52.524;13.422;2022-11-15T05:25:05;244.33;;;116.07;;
5710;SDS011;61291;52.524;13.422;2022-11-15T05:27:31;289.52;;;126.22;;
5710;SDS011;61291;52.524;13.422;2022-11-15T05:29:57;304.40;;;132.43;;
5710;SDS011;61291;52.524;13.422;2022-11-15T05:32:23;280.33;;;122.70;;
5710;SDS011;61291;52.524;13.422;2022-11-15T05:34:49;269.43;;;119.07;;
5710;SDS011;61291;52.524;13.422;2022-11-15T05:37:17;286.23;;;123.50;;
5710;SDS011;61291;52.524;13.422;2022-11-15T05:39:46;282.83;;;121.60;;
5710;SDS011;61291;52.524;13.422;2022-11-15T05:42:12;261.57;;;116.70;;
5710;SDS011;61291;52.524;13.422;2022-11-15T05:44:41;273.90;;;121.67;;
5710;SDS011;61291;52.524;13.422;2022-11-15T05:47:10;259.50;;;123.17;;
5710;SDS011;61291;52.524;13.422;2022-11-15T05:49:38;289.40;;;118.43;;
5710;SDS011;61291;52.524;13.422;2022-11-15T05:52:06;284.87;;;121.37;;
5710;SDS011;61291;52.524;13.422;2022-11-15T05:54:35;269.57;;;118.47;;
5710;SDS011;61291;52.524;13.422;2022-11-15T05:57:01;267.80;;;121.43;;
5710;SDS011;61291;52.524;13.422;2022-11-15T05:59:28;281.97;;;127.20;;
5710;SDS011;61291;52.524;13.422;2022-11-15T06:01:55;295.70;;;122.20;;
5710;SDS011;61291;52.524;13.422;2022-11-15T06:04:21;281.67;;;121.73;;
5710;SDS011;61291;52.524;13.422;2022-11-15T06:06:46;293.80;;;125.28;;
5710;SDS011;61291;52.524;13.422;2022-11-15T06:09:12;292.63;;;131.10;;
5710;SDS011;61291;52.524;13.422;2022-11-15T06:11:37;258.33;;;124.07;;
5710;SDS011;61291;52.524;13.422;2022-11-15T06:14:03;260.63;;;115.40;;
5710;SDS011;61291;52.524;13.422;2022-11-15T06:16:28;264.60;;;118.33;;
5710;SDS011;61291;52.524;13.422;2022-11-15T06:18:54;274.90;;;118.20;;
5710;SDS011;61291;52.524;13.422;2022-11-15T06:21:19;232.77;;;118.93;;
5710;SDS011;61291;52.524;13.422;2022-11-15T06:23:45;261.00;;;120.83;;
5710;SDS011;61291;52.524;13.422;2022-11-15T06:26:10;282.53;;;127.90;;
5710;SDS011;61291;52.524;13.422;2022-11-15T06:28:36;260.93;;;126.60;;
5710;SDS011;61291;52.524;13.422;2022-11-15T06:31:02;246.00;;;116.87;;
5710;SDS011;61291;52.524;13.422;2022-11-15T06:33:32;232.00;;;116.97;;
5710;SDS011;61291;52.524;13.422;2022-11-15T06:36:15;257.50;;;121.03;;
5710;SDS011;61291;52.524;13.422;2022-11-15T06:38:42;238.50;;;121.97;;
5710;SDS011;61291;52.524;13.422;2022-11-15T06:41:09;276.17;;;121.50;;
5710;SDS011;61291;52.524;13.422;2022-11-15T06:43:36;280.97;;;122.73;;
5710;SDS011;61291;52.524;13.422;2022-11-15T06:46:03;244.73;;;117.13;;
5710;SDS011;61291;52.524;13.422;2022-11-15T06:48:29;276.97;;;125.27;;
5710;SDS011;61291;52.524;13.422;2022-11-15T06:50:59;249.13;;;118.97;;
5710;SDS011;61291;52.524;13.422;2022-11-15T06:53:26;245.07;;;114.30;;
5710;SDS011;61291;52.524;13.422;2022-11-15T06:55:52;230.60;;;114.83;;
5710;SDS011;61291;52.524;13.422;2022-11-15T06:58:18;248.00;;;128.50;;
5710;SDS011;61291;52.524;13.422;2022-11-15T07:00:45;231.33;;;121.73;;
5710;SDS011;61291;52.524;13.422;2022-11-15T07:03:10;246.50;;;121.07;;
5710;SDS011;61291;52.524;13.422;2022-11-15T07:05:36;246.27;;;126.27;;
5710;SDS011;61291;52.524;13.422;2022-11-15T07:08:01;262.90;;;126.00;;
5710;SDS011;61291;52.524;13.422;2022-11-15T07:10:27;253.67;;;123.37;;
5710;SDS011;61291;52.524;13.422;2022-11-15T07:12:53;221.67;;;122.40;;
5710;SDS011;61291;52.524;13.422;2022-11-15T07:15:21;228.43;;;123.77;;
5710;SDS011;61291;52.524;13.422;2022-11-15T07:17:49;242.97;;;125.83;;
5710;SDS011;61291;52.524;13.422;2022-11-15T07:20:15;230.93;;;121.10;;
5710;SDS011;61291;52.524;13.422;2022-11-15T07:22:41;234.73;;;121.07;;
5710;SDS011;61291;52.524;13.422;2022-11-15T07:25:07;223.10;;;119.20;;
5710;SDS011;61291;52.524;13.422;2022-11-15T07:27:33;255.25;;;120.93;;
5710;SDS011;61291;52.524;13.422;2022-11-15T07:29:58;248.73;;;128.67;;
5710;SDS011;61291;52.524;13.422;2022-11-15T07:32:24;253.63;;;123.97;;
5710;SDS011;61291;52.524;13.422;2022-11-15T07:34:50;228.30;;;120.37;;
5710;SDS011;61291;52.524;13.422;2022-11-15T07:37:15;205.77;;;116.00;;
5710;SDS011;61291;52.524;13.422;2022-11-15T07:39:41;200.40;;;113.40;;
5710;SDS011;61291;52.524;13.422;2022-11-15T07:42:07;213.67;;;115.30;;
5710;SDS011;61291;52.524;13.422;2022-11-15T07:44:51;205.73;;;117.00;;
5710;SDS011;61291;52.524;13.422;2022-11-15T07:47:17;211.87;;;117.33;;
5710;SDS011;61291;52.524;13.422;2022-11-15T07:49:42;206.10;;;110.87;;
5710;SDS011;61291;52.524;13.422;2022-11-15T07:52:07;220.97;;;118.23;;
5710;SDS011;61291;52.524;13.422;2022-11-15T07:54:33;209.10;;;119.10;;
5710;SDS011;61291;52.524;13.422;2022-11-15T07:56:58;204.00;;;115.63;;
5710;SDS011;61291;52.524;13.422;2022-11-15T07:59:24;181.23;;;119.63;;
5710;SDS011;61291;52.524;13.422;2022-11-15T08:01:49;200.53;;;118.40;;
5710;SDS011;61291;52.524;13.422;2022-11-15T08:04:15;188.40;;;120.50;;
5710;SDS011;61291;52.524;13.422;2022-11-15T08:06:40;199.70;;;119.20;;
5710;SDS011;61291;52.524;13.422;2022-11-15T08:09:06;193.10;;;118.80;;
5710;SDS011;61291;52.524;13.422;2022-11-15T08:11:31;163.63;;;112.53;;
5710;SDS011;61291;52.524;13.422;2022-11-15T08:13:57;168.40;;;114.60;;
5710;SDS011;61291;52.524;13.422;2022-11-15T08:16:23;157.77;;;112.53;;
5710;SDS011;61291;52.524;13.422;2022-11-15T08:18:48;153.53;;;115.40;;
5710;SDS011;61291;52.524;13.422;2022-11-15T08:21:14;171.17;;;117.27;;
5710;SDS011;61291;52.524;13.422;2022-11-15T08:23:43;162.37;;;111.40;;
5710;SDS011;61291;52.524;13.422;2022-11-15T08:26:09;166.87;;;115.60;;
5710;SDS011;61291;52.524;13.422;2022-11-15T08:28:35;164.20;;;110.10;;
5710;SDS011;61291;52.524;13.422;2022-11-15T08:31:00;163.43;;;116.20;;
5710;SDS011;61291;52.524;13.422;2022-11-15T08:33:26;154.77;;;107.10;;
5710;SDS011;61291;52.524;13.422;2022-11-15T08:35:52;150.27;;;109.93;;
5710;SDS011;61291;52.524;13.422;2022-11-15T08:38:22;151.80;;;108.83;;
5710;SDS011;61291;52.524;13.422;2022-11-15T08:40:47;152.77;;;110.23;;
5710;SDS011;61291;52.524;13.422;2022-11-15T08:43:13;148.70;;;107.80;;
5710;SDS011;61291;52.524;13.422;2022-11-15T08:45:38;153.40;;;105.70;;
5710;SDS011;61291;52.524;13.422;2022-11-15T08:48:04;140.57;;;105.10;;
5710;SDS011;61291;52.524;13.422;2022-11-15T08:50:30;130.47;;;100.40;;
5710;SDS011;61291;52.524;13.422;2022-11-15T08:52:56;144.27;;;105.70;;
5710;SDS011;61291;52.524;13.422;2022-11-15T08:55:22;137.40;;;102.60;;
5710;SDS011;61291;52.524;13.422;2022-11-15T08:57:47;128.33;;;103.03;;
5710;SDS011;61291;52.524;13.422;2022-11-15T09:00:13;137.83;;;103.93;;
5710;SDS011;61291;52.524;13.422;2022-11-15T09:02:39;124.20;;;104.97;;
5710;SDS011;61291;52.524;13.422;2022-11-15T09:05:05;121.97;;;100.83;;
5710;SDS011;61291;52.524;13.422;2022-11-15T09:07:31;127.67;;;100.40;;
5710;SDS011;61291;52.524;13.422;2022-11-15T09:09:57;127.23;;;106.63;;
5710;SDS011;61291;52.524;13.422;2022-11-15T09:12:22;119.07;;;100.53;;
5710;SDS011;61291;52.524;13.422;2022-11-15T09:14:48;118.03;;;102.10;;
5710;SDS011;61291;52.524;13.422;2022-11-15T09:17:14;127.27;;;104.17;;
5710;SDS011;61291;52.524;13.422;2022-11-15T09:19:39;118.90;;;103.10;;
5710;SDS011;61291;52.524;13.422;2022-11-15T09:22:05;119.97;;;100.40;;
5710;SDS011;61291;52.524;13.422;2022-11-15T09:24:31;126.97;;;103.37;;
5710;SDS011;61291;52.524;13.422;2022-11-15T09:26:57;118.10;;;105.50;;
5710;SDS011;61291;52.524;13.422;2022-11-15T09:29:22;117.97;;;100.93;;
5710;SDS011;61291;52.524;13.422;2022-11-15T09:31:48;119.23;;;99.00;;
5710;SDS011;61291;52.524;13.422;2022-11-15T09:34:16;116.47;;;101.30;;
5710;SDS011;61291;52.524;13.422;2022-11-15T09:36:41;115.83;;;101.83;;
5710;SDS011;61291;52.524;13.422;2022-11-15T09:39:07;115.13;;;103.17;;
5710;SDS011;61291;52.524;13.422;2022-11-15T09:41:36;105.90;;;94.93;;
5710;SDS011;61291;52.524;13.422;2022-11-15T09:47:13;106.30;;;95.17;;
5710;SDS011;61291;52.524;13.422;2022-11-15T09:49:57;105.57;;;94.67;;
5710;SDS011;61291;52.524;13.422;2022-11-15T09:52:25;100.67;;;90.97;;
5710;SDS011;61291;52.524;13.422;2022-11-15T09:54:51;103.47;;;92.90;;
5710;SDS011;61291;52.524;13.422;2022-11-15T09:57:28;96.03;;;86.73;;
5710;SDS011;61291;52.524;13.422;2022-11-15T10:05:54;99.53;;;90.00;;
5710;SDS011;61291;52.524;13.422;2022-11-15T10:11:02;97.23;;;88.07;;
5710;SDS011;61291;52.524;13.422;2022-11-15T10:13:31;95.03;;;85.70;;
5710;SDS011;61291;52.524;13.422;2022-11-15T10:21:55;89.73;;;81.27;;
5710;SDS011;61291;52.524;13.422;2022-11-15T10:24:37;87.33;;;79.17;;
5710;SDS011;61291;52.524;13.422;2022-11-15T10:27:10;92.13;;;83.33;;
5710;SDS011;61291;52.524;13.422;2022-11-15T10:29:47;80.00;;;72.00;;
5710;SDS011;61291;52.524;13.422;2022-11-15T10:32:16;87.30;;;79.43;;
5710;SDS011;61291;52.524;13.422;2022-11-15T10:34:44;83.37;;;75.73;;
5710;SDS011;61291;52.524;13.422;2022-11-15T10:37:10;87.60;;;79.40;;
5710;SDS011;61291;52.524;13.422;2022-11-15T10:39:36;86.27;;;78.73;;
5710;SDS011;61291;52.524;13.422;2022-11-15T10:44:50;89.80;;;81.67;;
5710;SDS011;61291;52.524;13.422;2022-11-15T10:49:56;89.20;;;80.63;;
5710;SDS011;61291;52.524;13.422;2022-11-15T10:52:23;90.60;;;81.10;;
5710;SDS011;61291;52.524;13.422;2022-11-15T10:57:25;84.93;;;76.43;;
5710;SDS011;61291;52.524;13.422;2022-11-15T10:59:57;80.70;;;72.80;;
5710;SDS011;61291;52.524;13.422;2022-11-15T11:02:39;84.47;;;76.63;;
5710;SDS011;61291;52.524;13.422;2022-11-15T11:05:27;79.57;;;72.43;;
5710;SDS011;61291;52.524;13.422;2022-11-15T11:07:59;73.88;;;65.40;;
5710;SDS011;61291;52.524;13.422;2022-11-15T11:10:28;81.67;;;73.37;;
5710;SDS011;61291;52.524;13.422;2022-11-15T11:12:54;83.47;;;75.10;;
5710;SDS011;61291;52.524;13.422;2022-11-15T11:15:20;83.60;;;75.40;;
5710;SDS011;61291;52.524;13.422;2022-11-15T11:17:57;80.90;;;73.37;;
5710;SDS011;61291;52.524;13.422;2022-11-15T11:20:37;81.40;;;73.60;;
5710;SDS011;61291;52.524;13.422;2022-11-15T11:26:11;84.20;;;76.10;;
5710;SDS011;61291;52.524;13.422;2022-11-15T11:29:01;83.10;;;75.07;;
5710;SDS011;61291;52.524;13.422;2022-11-15T11:31:41;86.53;;;78.93;;
5710;SDS011;61291;52.524;13.422;2022-11-15T11:34:41;88.70;;;79.83;;
5710;SDS011;61291;52.524;13.422;2022-11-15T11:37:35;82.77;;;75.33;;
5710;SDS011;61291;52.524;13.422;2022-11-15T11:40:20;93.50;;;83.57;;
5710;SDS011;61291;52.524;13.422;2022-11-15T11:43:06;86.97;;;78.67;;
5710;SDS011;61291;52.524;13.422;2022-11-15T11:48:34;84.30;;;76.77;;
5710;SDS011;61291;52.524;13.422;2022-11-15T11:51:23;85.07;;;76.97;;
5710;SDS011;61291;52.524;13.422;2022-11-15T11:57:02;85.80;;;77.90;;
5710;SDS011;61291;52.524;13.422;2022-11-15T11:59:34;85.63;;;77.57;;
5710;SDS011;61291;52.524;13.422;2022-11-15T12:02:12;85.30;;;77.60;;
5710;SDS011;61291;52.524;13.422;2022-11-15T12:05:09;89.10;;;81.20;;
5710;SDS011;61291;52.524;13.422;2022-11-15T12:07:43;82.60;;;74.73;;
5710;SDS011;61291;52.524;13.422;2022-11-15T12:10:22;81.53;;;73.57;;
5710;SDS011;61291;52.524;13.422;2022-11-15T12:13:10;88.50;;;80.50;;
5710;SDS011;61291;52.524;13.422;2022-11-15T12:15:55;84.63;;;77.37;;
5710;SDS011;61291;52.524;13.422;2022-11-15T12:18:27;82.03;;;74.50;;
5710;SDS011;61291;52.524;13.422;2022-11-15T12:20:55;84.30;;;76.60;;
5710;SDS011;61291;52.524;13.422;2022-11-15T12:23:27;82.43;;;74.73;;
5710;SDS011;61291;52.524;13.422;2022-11-15T12:26:00;87.57;;;79.23;;
5710;SDS011;61291;52.524;13.422;2022-11-15T12:28:45;85.23;;;77.50;;
5710;SDS011;61291;52.524;13.422;2022-11-15T12:31:36;90.03;;;81.70;;
5710;SDS011;61291;52.524;13.422;2022-11-15T12:34:13;85.40;;;77.17;;
5710;SDS011;61291;52.524;13.422;2022-11-15T12:36:46;89.80;;;79.70;;
5710;SDS011;61291;52.524;13.422;2022-11-15T12:39:14;85.77;;;78.07;;
5710;SDS011;61291;52.524;13.422;2022-11-15T12:41:41;94.87;;;85.40;;
5710;SDS011;61291;52.524;13.422;2022-11-15T12:44:12;93.30;;;84.83;;
5710;SDS011;61291;52.524;13.422;2022-11-15T13:05:49;86.40;;;79.10;;
5710;SDS011;61291;52.524;13.422;2022-11-15T13:08:00;85.67;;;78.30;;
5710;SDS011;61291;52.524;13.422;2022-11-15T13:21:04;93.13;;;84.30;;
5710;SDS011;61291;52.524;13.422;2022-11-15T13:24:02;89.27;;;81.57;;
5710;SDS011;61291;52.524;13.422;2022-11-15T13:26:28;87.83;;;80.30;;
5710;SDS011;61291;52.524;13.422;2022-11-15T13:28:54;87.37;;;79.43;;
5710;SDS011;61291;52.524;13.422;2022-11-15T13:31:34;85.83;;;78.27;;
5710;SDS011;61291;52.524;13.422;2022-11-15T13:34:12;84.27;;;76.90;;
5710;SDS011;61291;52.524;13.422;2022-11-15T13:36:41;84.50;;;77.63;;
5710;SDS011;61291;52.524;13.422;2022-11-15T13:41:51;84.67;;;76.20;;
5710;SDS011;61291;52.524;13.422;2022-11-15T13:44:30;81.17;;;74.17;;
5710;SDS011;61291;52.524;13.422;2022-11-15T13:47:15;78.67;;;71.90;;
5710;SDS011;61291;52.524;13.422;2022-11-15T13:49:44;87.60;;;79.73;;
5710;SDS011;61291;52.524;13.422;2022-11-15T13:52:11;79.93;;;72.87;;
5710;SDS011;61291;52.524;13.422;2022-11-15T13:54:45;78.80;;;71.77;;
5710;SDS011;61291;52.524;13.422;2022-11-15T13:57:35;79.97;;;73.47;;
5710;SDS011;61291;52.524;13.422;2022-11-15T14:03:16;72.83;;;66.77;;
5710;SDS011;61291;52.524;13.422;2022-11-15T14:06:01;74.77;;;68.60;;
5710;SDS011;61291;52.524;13.422;2022-11-15T14:08:35;73.87;;;67.70;;
5710;SDS011;61291;52.524;13.422;2022-11-15T14:11:08;74.93;;;67.90;;
5710;SDS011;61291;52.524;13.422;2022-11-15T14:13:39;75.97;;;69.37;;
5710;SDS011;61291;52.524;13.422;2022-11-15T14:16:12;75.13;;;68.90;;
5710;SDS011;61291;52.524;13.422;2022-11-15T14:18:49;79.17;;;72.60;;
5710;SDS011;61291;52.524;13.422;2022-11-15T14:21:17;76.53;;;69.43;;
5710;SDS011;61291;52.524;13.422;2022-11-15T14:23:43;76.87;;;70.40;;
5710;SDS011;61291;52.524;13.422;2022-11-15T14:26:28;72.63;;;66.63;;
5710;SDS011;61291;52.524;13.422;2022-11-15T14:28:56;72.83;;;66.57;;
5710;SDS011;61291;52.524;13.422;2022-11-15T14:31:22;76.17;;;69.13;;
5710;SDS011;61291;52.524;13.422;2022-11-15T14:33:47;75.77;;;69.67;;
5710;SDS011;61291;52.524;13.422;2022-11-15T14:36:17;76.07;;;69.37;;
5710;SDS011;61291;52.524;13.422;2022-11-15T14:38:44;75.03;;;68.43;;
5710;SDS011;61291;52.524;13.422;2022-11-15T14:41:20;75.73;;;69.23;;
5710;SDS011;61291;52.524;13.422;2022-11-15T14:43:48;73.30;;;67.17;;
5710;SDS011;61291;52.524;13.422;2022-11-15T14:46:16;78.83;;;72.30;;
5710;SDS011;61291;52.524;13.422;2022-11-15T14:48:42;78.10;;;71.70;;
5710;SDS011;61291;52.524;13.422;2022-11-15T14:51:14;79.73;;;73.00;;
5710;SDS011;61291;52.524;13.422;2022-11-15T14:53:42;84.23;;;76.50;;
5710;SDS011;61291;52.524;13.422;2022-11-15T14:56:08;78.97;;;72.10;;
5710;SDS011;61291;52.524;13.422;2022-11-15T14:58:34;81.10;;;73.50;;
5710;SDS011;61291;52.524;13.422;2022-11-15T15:01:01;74.68;;;68.20;;
5710;SDS011;61291;52.524;13.422;2022-11-15T15:03:45;74.57;;;67.93;;
5710;SDS011;61291;52.524;13.422;2022-11-15T15:06:10;75.80;;;69.37;;
5710;SDS011;61291;52.524;13.422;2022-11-15T15:08:37;75.70;;;69.13;;
5710;SDS011;61291;52.524;13.422;2022-11-15T15:11:06;73.43;;;66.80;;
5710;SDS011;61291;52.524;13.422;2022-11-15T15:13:39;75.17;;;68.37;;
5710;SDS011;61291;52.524;13.422;2022-11-15T15:16:06;75.17;;;68.37;;
5710;SDS011;61291;52.524;13.422;2022-11-15T15:18:31;74.87;;;67.57;;
5710;SDS011;61291;52.524;13.422;2022-11-15T15:20:57;76.30;;;69.80;;
5710;SDS011;61291;52.524;13.422;2022-11-15T15:23:32;75.43;;;68.77;;
5710;SDS011;61291;52.524;13.422;2022-11-15T15:25:58;71.17;;;65.07;;
5710;SDS011;61291;52.524;13.422;2022-11-15T15:28:23;78.33;;;71.20;;
5710;SDS011;61291;52.524;13.422;2022-11-15T15:30:49;74.93;;;68.30;;
5710;SDS011;61291;52.524;13.422;2022-11-15T15:33:15;82.93;;;74.50;;
5710;SDS011;61291;52.524;13.422;2022-11-15T15:35:41;85.53;;;77.23;;
5710;SDS011;61291;52.524;13.422;2022-11-15T15:38:08;75.70;;;68.90;;
5710;SDS011;61291;52.524;13.422;2022-11-15T15:40:36;77.73;;;70.60;;
5710;SDS011;61291;52.524;13.422;2022-11-15T15:43:02;77.63;;;70.50;;
5710;SDS011;61291;52.524;13.422;2022-11-15T15:45:27;81.87;;;74.27;;
5710;SDS011;61291;52.524;13.422;2022-11-15T15:47:54;81.40;;;73.93;;
5710;SDS011;61291;52.524;13.422;2022-11-15T15:50:22;83.30;;;75.63;;
5710;SDS011;61291;52.524;13.422;2022-11-15T15:52:53;77.63;;;69.63;;